sensor_id;sensor_type;location;lat;lon;timestamp;temperature;humidity
2647;DHT22;1333;50.958;6.770;2022-09-29T00:00:41;8.70;99.90
2647;DHT22;1333;50.958;6.770;2022-09-29T00:03:06;8.60;99.90
2647;DHT22;1333;50.958;6.770;2022-09-29T00:05:33;8.60;99.90
2647;DHT22;1333;50.958;6.770;2022-09-29T00:07:59;8.50;99.90
2647;DHT22;1333;50.958;6.770;2022-09-29T00:10:25;8.40;99.90
2647;DHT22;1333;50.958;6.770;2022-09-29T00:12:50;8.30;99.90
2647;DHT22;1333;50.958;6.770;2022-09-29T00:15:16;8.30;99.90
2647;DHT22;1333;50.958;6.770;2022-09-29T00:17:42;8.20;99.90
2647;DHT22;1333;50.958;6.770;2022-09-29T00:20:07;8.10;99.90
2647;DHT22;1333;50.958;6.770;2022-09-29T00:22:33;8.10;99.90
2647;DHT22;1333;50.958;6.770;2022-09-29T00:24:59;8.00;99.90
2647;DHT22;1333;50.958;6.770;2022-09-29T00:27:25;8.00;99.90
2647;DHT22;1333;50.958;6.770;2022-09-29T00:29:50;7.90;99.90
2647;DHT22;1333;50.958;6.770;2022-09-29T00:32:16;7.90;99.90
2647;DHT22;1333;50.958;6.770;2022-09-29T00:34:41;7.90;99.90
2647;DHT22;1333;50.958;6.770;2022-09-29T00:37:07;7.80;99.90
2647;DHT22;1333;50.958;6.770;2022-09-29T00:39:32;7.80;99.90
2647;DHT22;1333;50.958;6.770;2022-09-29T00:41:58;7.80;99.90
2647;DHT22;1333;50.958;6.770;2022-09-29T00:47:20;7.70;99.90
2647;DHT22;1333;50.958;6.770;2022-09-29T00:49:53;7.60;99.90
2647;DHT22;1333;50.958;6.770;2022-09-29T00:57:30;7.60;99.90
2647;DHT22;1333;50.958;6.770;2022-09-29T01:00:10;7.60;99.90
2647;DHT22;1333;50.958;6.770;2022-09-29T01:02:41;7.60;99.90
2647;DHT22;1333;50.958;6.770;2022-09-29T01:05:12;7.50;99.90
2647;DHT22;1333;50.958;6.770;2022-09-29T01:07:39;7.40;99.90
2647;DHT22;1333;50.958;6.770;2022-09-29T01:10:05;7.40;99.90
2647;DHT22;1333;50.958;6.770;2022-09-29T01:12:32;7.40;99.90
2647;DHT22;1333;50.958;6.770;2022-09-29T01:14:57;7.30;99.90
2647;DHT22;1333;50.958;6.770;2022-09-29T01:17:24;7.30;99.90
2647;DHT22;1333;50.958;6.770;2022-09-29T01:20:17;7.30;99.90
2647;DHT22;1333;50.958;6.770;2022-09-29T01:23:12;7.20;99.90
2647;DHT22;1333;50.958;6.770;2022-09-29T01:47:32;7.00;99.90
2647;DHT22;1333;50.958;6.770;2022-09-29T01:50:06;7.00;99.90
2647;DHT22;1333;50.958;6.770;2022-09-29T01:52:43;7.00;99.90
2647;DHT22;1333;50.958;6.770;2022-09-29T01:55:15;7.00;99.90
2647;DHT22;1333;50.958;6.770;2022-09-29T01:57:55;7.00;99.90
2647;DHT22;1333;50.958;6.770;2022-09-29T02:00:22;7.00;99.90
2647;DHT22;1333;50.958;6.770;2022-09-29T02:03:05;6.90;99.90
2647;DHT22;1333;50.958;6.770;2022-09-29T02:05:43;6.90;99.90
2647;DHT22;1333;50.958;6.770;2022-09-29T02:08:13;6.90;99.90
2647;DHT22;1333;50.958;6.770;2022-09-29T02:10:52;6.90;99.90
2647;DHT22;1333;50.958;6.770;2022-09-29T02:13:19;6.80;99.90
2647;DHT22;1333;50.958;6.770;2022-09-29T02:15:47;6.80;99.90
2647;DHT22;1333;50.958;6.770;2022-09-29T02:18:19;6.90;99.90
2647;DHT22;1333;50.958;6.770;2022-09-29T02:20:46;6.90;99.90
2647;DHT22;1333;50.958;6.770;2022-09-29T02:23:12;6.90;99.90
2647;DHT22;1333;50.958;6.770;2022-09-29T02:25:39;6.90;99.90
2647;DHT22;1333;50.958;6.770;2022-09-29T02:28:05;6.90;99.90
2647;DHT22;1333;50.958;6.770;2022-09-29T02:30:32;6.90;99.90
2647;DHT22;1333;50.958;6.770;2022-09-29T02:32:58;6.80;99.90
2647;DHT22;1333;50.958;6.770;2022-09-29T02:35:29;6.90;99.90
2647;DHT22;1333;50.958;6.770;2022-09-29T02:40:51;6.80;99.90
2647;DHT22;1333;50.958;6.770;2022-09-29T02:46:34;6.80;99.90
2647;DHT22;1333;50.958;6.770;2022-09-29T02:51:45;6.80;99.90
2647;DHT22;1333;50.958;6.770;2022-09-29T02:54:48;6.80;99.90
2647;DHT22;1333;50.958;6.770;2022-09-29T03:02:24;6.80;99.90
2647;DHT22;1333;50.958;6.770;2022-09-29T03:04:51;6.80;99.90
2647;DHT22;1333;50.958;6.770;2022-09-29T03:07:18;6.80;99.90
2647;DHT22;1333;50.958;6.770;2022-09-29T03:09:43;6.80;99.90
2647;DHT22;1333;50.958;6.770;2022-09-29T03:12:09;6.70;99.90
2647;DHT22;1333;50.958;6.770;2022-09-29T03:14:34;6.60;99.90
2647;DHT22;1333;50.958;6.770;2022-09-29T03:17:00;6.50;99.90
2647;DHT22;1333;50.958;6.770;2022-09-29T03:19:25;6.50;99.90
2647;DHT22;1333;50.958;6.770;2022-09-29T03:21:51;6.50;99.90
2647;DHT22;1333;50.958;6.770;2022-09-29T03:24:16;6.50;99.90
2647;DHT22;1333;50.958;6.770;2022-09-29T03:26:42;6.50;99.90
2647;DHT22;1333;50.958;6.770;2022-09-29T03:29:07;6.50;99.90
2647;DHT22;1333;50.958;6.770;2022-09-29T03:31:33;6.40;99.90
2647;DHT22;1333;50.958;6.770;2022-09-29T03:33:58;6.30;99.90
2647;DHT22;1333;50.958;6.770;2022-09-29T03:36:24;6.30;99.90
2647;DHT22;1333;50.958;6.770;2022-09-29T03:38:49;6.30;99.90
2647;DHT22;1333;50.958;6.770;2022-09-29T03:41:15;6.40;99.90
2647;DHT22;1333;50.958;6.770;2022-09-29T03:43:41;6.30;99.90
2647;DHT22;1333;50.958;6.770;2022-09-29T03:46:06;6.20;99.90
2647;DHT22;1333;50.958;6.770;2022-09-29T03:48:32;6.20;99.90
2647;DHT22;1333;50.958;6.770;2022-09-29T03:50:59;6.10;99.90
2647;DHT22;1333;50.958;6.770;2022-09-29T03:53:25;6.10;99.90
2647;DHT22;1333;50.958;6.770;2022-09-29T03:55:51;6.00;99.90
2647;DHT22;1333;50.958;6.770;2022-09-29T03:58:17;6.00;99.90
2647;DHT22;1333;50.958;6.770;2022-09-29T04:00:43;5.90;99.90
2647;DHT22;1333;50.958;6.770;2022-09-29T04:03:08;5.90;99.90
2647;DHT22;1333;50.958;6.770;2022-09-29T04:05:34;5.90;99.90
2647;DHT22;1333;50.958;6.770;2022-09-29T04:08:05;5.90;99.90
2647;DHT22;1333;50.958;6.770;2022-09-29T04:10:35;5.90;99.90
2647;DHT22;1333;50.958;6.770;2022-09-29T04:13:01;5.90;99.90
2647;DHT22;1333;50.958;6.770;2022-09-29T04:15:27;5.90;99.90
2647;DHT22;1333;50.958;6.770;2022-09-29T04:17:52;5.90;99.90
2647;DHT22;1333;50.958;6.770;2022-09-29T04:20:18;5.80;99.90
2647;DHT22;1333;50.958;6.770;2022-09-29T04:22:43;5.80;99.90
2647;DHT22;1333;50.958;6.770;2022-09-29T04:25:09;5.70;99.90
2647;DHT22;1333;50.958;6.770;2022-09-29T04:27:34;5.70;99.90
2647;DHT22;1333;50.958;6.770;2022-09-29T04:30:00;5.60;99.90
2647;DHT22;1333;50.958;6.770;2022-09-29T04:32:25;5.50;99.90
2647;DHT22;1333;50.958;6.770;2022-09-29T04:34:51;5.50;99.90
2647;DHT22;1333;50.958;6.770;2022-09-29T04:37:17;5.50;99.90
2647;DHT22;1333;50.958;6.770;2022-09-29T04:39:42;5.40;99.90
2647;DHT22;1333;50.958;6.770;2022-09-29T04:42:08;5.40;99.90
2647;DHT22;1333;50.958;6.770;2022-09-29T04:44:33;5.50;99.90
2647;DHT22;1333;50.958;6.770;2022-09-29T04:46:59;5.50;99.90
2647;DHT22;1333;50.958;6.770;2022-09-29T04:49:25;5.50;99.90
2647;DHT22;1333;50.958;6.770;2022-09-29T04:51:50;5.40;99.90
2647;DHT22;1333;50.958;6.770;2022-09-29T04:54:16;5.30;99.90
2647;DHT22;1333;50.958;6.770;2022-09-29T04:56:41;5.30;99.90
2647;DHT22;1333;50.958;6.770;2022-09-29T04:59:08;5.40;99.90
2647;DHT22;1333;50.958;6.770;2022-09-29T05:01:34;5.40;99.90
2647;DHT22;1333;50.958;6.770;2022-09-29T05:04:00;5.30;99.90
2647;DHT22;1333;50.958;6.770;2022-09-29T05:06:26;5.30;99.90
2647;DHT22;1333;50.958;6.770;2022-09-29T05:08:51;5.20;99.90
2647;DHT22;1333;50.958;6.770;2022-09-29T05:11:17;5.20;99.90
2647;DHT22;1333;50.958;6.770;2022-09-29T05:13:42;5.20;99.90
2647;DHT22;1333;50.958;6.770;2022-09-29T05:16:08;5.10;99.90
2647;DHT22;1333;50.958;6.770;2022-09-29T05:18:34;5.30;99.90
2647;DHT22;1333;50.958;6.770;2022-09-29T05:21:04;5.30;99.90
2647;DHT22;1333;50.958;6.770;2022-09-29T05:23:30;5.40;99.90
2647;DHT22;1333;50.958;6.770;2022-09-29T05:26:00;5.40;99.90
2647;DHT22;1333;50.958;6.770;2022-09-29T05:28:26;5.40;99.90
2647;DHT22;1333;50.958;6.770;2022-09-29T05:30:51;5.40;99.90
2647;DHT22;1333;50.958;6.770;2022-09-29T05:33:17;5.40;99.90
2647;DHT22;1333;50.958;6.770;2022-09-29T05:35:42;5.40;99.90
2647;DHT22;1333;50.958;6.770;2022-09-29T05:38:08;5.40;99.90
2647;DHT22;1333;50.958;6.770;2022-09-29T05:40:35;5.40;99.90
2647;DHT22;1333;50.958;6.770;2022-09-29T05:43:01;5.30;99.90
2647;DHT22;1333;50.958;6.770;2022-09-29T05:45:27;5.30;99.90
2647;DHT22;1333;50.958;6.770;2022-09-29T05:47:53;5.30;99.90
2647;DHT22;1333;50.958;6.770;2022-09-29T05:50:19;5.30;99.90
2647;DHT22;1333;50.958;6.770;2022-09-29T05:52:45;5.30;99.90
2647;DHT22;1333;50.958;6.770;2022-09-29T05:55:15;5.30;99.90
2647;DHT22;1333;50.958;6.770;2022-09-29T05:57:41;5.30;99.90
2647;DHT22;1333;50.958;6.770;2022-09-29T06:00:07;5.40;99.90
2647;DHT22;1333;50.958;6.770;2022-09-29T06:02:32;5.50;99.90
2647;DHT22;1333;50.958;6.770;2022-09-29T06:04:59;5.60;99.90
2647;DHT22;1333;50.958;6.770;2022-09-29T06:07:24;5.60;99.90
2647;DHT22;1333;50.958;6.770;2022-09-29T06:09:50;5.70;99.90
2647;DHT22;1333;50.958;6.770;2022-09-29T06:12:16;5.80;99.90
2647;DHT22;1333;50.958;6.770;2022-09-29T06:14:41;5.80;99.90
2647;DHT22;1333;50.958;6.770;2022-09-29T06:17:07;5.90;99.90
2647;DHT22;1333;50.958;6.770;2022-09-29T06:19:32;6.00;99.90
2647;DHT22;1333;50.958;6.770;2022-09-29T06:21:58;6.00;99.90
2647;DHT22;1333;50.958;6.770;2022-09-29T06:24:23;6.10;99.90
2647;DHT22;1333;50.958;6.770;2022-09-29T06:26:49;6.20;99.90
2647;DHT22;1333;50.958;6.770;2022-09-29T06:29:14;6.30;99.90
2647;DHT22;1333;50.958;6.770;2022-09-29T06:31:40;6.30;99.90
2647;DHT22;1333;50.958;6.770;2022-09-29T06:34:05;6.40;99.90
2647;DHT22;1333;50.958;6.770;2022-09-29T06:36:35;6.50;99.90
2647;DHT22;1333;50.958;6.770;2022-09-29T06:39:21;6.60;99.90
2647;DHT22;1333;50.958;6.770;2022-09-29T06:41:46;6.80;99.90
2647;DHT22;1333;50.958;6.770;2022-09-29T06:44:20;6.80;99.90
2647;DHT22;1333;50.958;6.770;2022-09-29T06:46:46;6.90;99.90
2647;DHT22;1333;50.958;6.770;2022-09-29T06:49:13;7.00;99.90
2647;DHT22;1333;50.958;6.770;2022-09-29T06:51:40;7.10;99.90
2647;DHT22;1333;50.958;6.770;2022-09-29T06:54:06;7.20;99.90
2647;DHT22;1333;50.958;6.770;2022-09-29T06:56:32;7.30;99.90
2647;DHT22;1333;50.958;6.770;2022-09-29T06:58:57;7.40;99.90
2647;DHT22;1333;50.958;6.770;2022-09-29T07:01:23;7.50;99.90
2647;DHT22;1333;50.958;6.770;2022-09-29T07:03:48;7.70;99.90
2647;DHT22;1333;50.958;6.770;2022-09-29T07:06:14;7.80;99.90
2647;DHT22;1333;50.958;6.770;2022-09-29T07:08:39;7.90;99.90
2647;DHT22;1333;50.958;6.770;2022-09-29T07:11:06;8.00;99.90
2647;DHT22;1333;50.958;6.770;2022-09-29T07:13:33;8.10;99.90
2647;DHT22;1333;50.958;6.770;2022-09-29T07:16:06;8.20;99.90
2647;DHT22;1333;50.958;6.770;2022-09-29T07:18:36;8.30;99.90
2647;DHT22;1333;50.958;6.770;2022-09-29T07:21:03;8.40;99.90
2647;DHT22;1333;50.958;6.770;2022-09-29T07:23:29;8.40;99.90
2647;DHT22;1333;50.958;6.770;2022-09-29T07:25:54;8.60;99.90
2647;DHT22;1333;50.958;6.770;2022-09-29T07:28:20;8.60;99.90
2647;DHT22;1333;50.958;6.770;2022-09-29T07:30:45;8.70;99.90
2647;DHT22;1333;50.958;6.770;2022-09-29T07:33:11;8.80;99.90
2647;DHT22;1333;50.958;6.770;2022-09-29T07:35:36;9.00;99.90
2647;DHT22;1333;50.958;6.770;2022-09-29T07:38:02;9.10;99.90
2647;DHT22;1333;50.958;6.770;2022-09-29T07:40:27;9.20;99.90
2647;DHT22;1333;50.958;6.770;2022-09-29T07:42:53;9.40;99.90
2647;DHT22;1333;50.958;6.770;2022-09-29T07:45:19;9.60;99.90
2647;DHT22;1333;50.958;6.770;2022-09-29T07:47:45;9.70;99.90
2647;DHT22;1333;50.958;6.770;2022-09-29T07:50:11;9.90;99.90
2647;DHT22;1333;50.958;6.770;2022-09-29T07:52:37;10.10;99.90
2647;DHT22;1333;50.958;6.770;2022-09-29T07:55:03;10.30;99.90
2647;DHT22;1333;50.958;6.770;2022-09-29T07:57:29;10.50;99.90
2647;DHT22;1333;50.958;6.770;2022-09-29T07:59:54;10.70;99.90
2647;DHT22;1333;50.958;6.770;2022-09-29T08:02:22;11.00;99.90
2647;DHT22;1333;50.958;6.770;2022-09-29T08:04:47;11.30;99.90
2647;DHT22;1333;50.958;6.770;2022-09-29T08:07:13;11.80;99.90
2647;DHT22;1333;50.958;6.770;2022-09-29T08:09:38;12.30;99.90
2647;DHT22;1333;50.958;6.770;2022-09-29T08:12:04;12.90;99.90
2647;DHT22;1333;50.958;6.770;2022-09-29T08:14:30;13.70;99.90
2647;DHT22;1333;50.958;6.770;2022-09-29T08:16:55;14.70;99.90
2647;DHT22;1333;50.958;6.770;2022-09-29T08:19:21;16.10;99.90
2647;DHT22;1333;50.958;6.770;2022-09-29T08:21:46;17.60;99.90
2647;DHT22;1333;50.958;6.770;2022-09-29T08:24:14;19.10;99.90
2647;DHT22;1333;50.958;6.770;2022-09-29T08:26:40;20.40;99.90
2647;DHT22;1333;50.958;6.770;2022-09-29T08:29:06;21.70;99.90
2647;DHT22;1333;50.958;6.770;2022-09-29T08:31:31;23.10;96.50
2647;DHT22;1333;50.958;6.770;2022-09-29T08:33:58;24.10;82.40
2647;DHT22;1333;50.958;6.770;2022-09-29T08:36:24;25.10;68.90
2647;DHT22;1333;50.958;6.770;2022-09-29T08:38:51;26.00;63.40
2647;DHT22;1333;50.958;6.770;2022-09-29T08:41:24;26.80;57.80
2647;DHT22;1333;50.958;6.770;2022-09-29T08:43:55;27.80;55.40
2647;DHT22;1333;50.958;6.770;2022-09-29T08:46:38;28.60;52.10
2647;DHT22;1333;50.958;6.770;2022-09-29T08:52:25;29.50;49.00
2647;DHT22;1333;50.958;6.770;2022-09-29T08:54:58;29.80;47.00
2647;DHT22;1333;50.958;6.770;2022-09-29T08:57:25;30.30;46.00
2647;DHT22;1333;50.958;6.770;2022-09-29T08:59:57;30.40;44.50
2647;DHT22;1333;50.958;6.770;2022-09-29T09:05:48;31.10;43.90
2647;DHT22;1333;50.958;6.770;2022-09-29T09:08:35;31.10;43.30
2647;DHT22;1333;50.958;6.770;2022-09-29T09:19:59;32.70;41.20
2647;DHT22;1333;50.958;6.770;2022-09-29T09:22:51;33.50;42.70
2647;DHT22;1333;50.958;6.770;2022-09-29T09:25:31;33.30;40.60
2647;DHT22;1333;50.958;6.770;2022-09-29T09:28:19;34.10;38.60
2647;DHT22;1333;50.958;6.770;2022-09-29T09:30:57;34.20;37.30
2647;DHT22;1333;50.958;6.770;2022-09-29T09:33:33;34.00;37.70
2647;DHT22;1333;50.958;6.770;2022-09-29T09:36:09;34.10;37.50
2647;DHT22;1333;50.958;6.770;2022-09-29T09:38:54;34.20;37.20
2647;DHT22;1333;50.958;6.770;2022-09-29T09:41:23;34.60;37.60
2647;DHT22;1333;50.958;6.770;2022-09-29T09:46:42;35.90;37.20
2647;DHT22;1333;50.958;6.770;2022-09-29T09:52:23;36.70;36.00
2647;DHT22;1333;50.958;6.770;2022-09-29T09:54:54;37.10;34.60
2647;DHT22;1333;50.958;6.770;2022-09-29T09:57:54;36.30;33.60
2647;DHT22;1333;50.958;6.770;2022-09-29T10:00:53;36.50;35.00
2647;DHT22;1333;50.958;6.770;2022-09-29T10:03:19;36.80;34.80
2647;DHT22;1333;50.958;6.770;2022-09-29T10:05:46;36.70;34.30
2647;DHT22;1333;50.958;6.770;2022-09-29T10:08:30;36.70;34.70
2647;DHT22;1333;50.958;6.770;2022-09-29T10:11:03;37.10;33.90
2647;DHT22;1333;50.958;6.770;2022-09-29T10:13:30;37.40;32.80
2647;DHT22;1333;50.958;6.770;2022-09-29T10:18:39;37.60;33.20
2647;DHT22;1333;50.958;6.770;2022-09-29T10:23:55;37.10;32.50
2647;DHT22;1333;50.958;6.770;2022-09-29T10:26:42;36.70;33.10
2647;DHT22;1333;50.958;6.770;2022-09-29T10:31:58;37.70;33.00
2647;DHT22;1333;50.958;6.770;2022-09-29T10:34:24;37.90;32.10
2647;DHT22;1333;50.958;6.770;2022-09-29T10:36:59;38.50;32.10
2647;DHT22;1333;50.958;6.770;2022-09-29T10:39:45;39.30;31.90
2647;DHT22;1333;50.958;6.770;2022-09-29T10:42:20;39.90;30.30
2647;DHT22;1333;50.958;6.770;2022-09-29T10:44:55;40.20;30.20
2647;DHT22;1333;50.958;6.770;2022-09-29T10:47:25;40.60;30.00
2647;DHT22;1333;50.958;6.770;2022-09-29T10:50:20;40.60;30.00
2647;DHT22;1333;50.958;6.770;2022-09-29T10:52:58;40.80;29.70
2647;DHT22;1333;50.958;6.770;2022-09-29T10:55:26;40.80;28.40
2647;DHT22;1333;50.958;6.770;2022-09-29T10:57:59;40.60;28.90
2647;DHT22;1333;50.958;6.770;2022-09-29T11:00:37;41.40;29.30
2647;DHT22;1333;50.958;6.770;2022-09-29T11:03:24;41.90;28.50
2647;DHT22;1333;50.958;6.770;2022-09-29T11:05:52;41.60;28.40
2647;DHT22;1333;50.958;6.770;2022-09-29T11:08:19;41.20;28.10
2647;DHT22;1333;50.958;6.770;2022-09-29T11:13:44;39.00;29.40
2647;DHT22;1333;50.958;6.770;2022-09-29T11:16:18;39.30;29.50
2647;DHT22;1333;50.958;6.770;2022-09-29T11:18:47;39.20;28.20
2647;DHT22;1333;50.958;6.770;2022-09-29T11:24:49;37.80;27.80
2647;DHT22;1333;50.958;6.770;2022-09-29T11:27:29;35.70;28.60
2647;DHT22;1333;50.958;6.770;2022-09-29T11:43:59;25.20;39.10
2647;DHT22;1333;50.958;6.770;2022-09-29T12:11:22;20.40;48.00
2647;DHT22;1333;50.958;6.770;2022-09-29T12:13:54;20.20;49.10
2647;DHT22;1333;50.958;6.770;2022-09-29T12:16:24;20.10;49.60
2647;DHT22;1333;50.958;6.770;2022-09-29T12:19:05;20.00;50.00
2647;DHT22;1333;50.958;6.770;2022-09-29T12:21:41;19.90;50.60
2647;DHT22;1333;50.958;6.770;2022-09-29T12:24:15;19.80;50.90
2647;DHT22;1333;50.958;6.770;2022-09-29T12:26:44;19.90;51.10
2647;DHT22;1333;50.958;6.770;2022-09-29T12:31:56;19.80;51.90
2647;DHT22;1333;50.958;6.770;2022-09-29T12:34:34;19.80;52.10
2647;DHT22;1333;50.958;6.770;2022-09-29T12:37:10;19.70;52.40
2647;DHT22;1333;50.958;6.770;2022-09-29T12:39:43;19.70;53.20
2647;DHT22;1333;50.958;6.770;2022-09-29T12:42:15;19.80;52.90
2647;DHT22;1333;50.958;6.770;2022-09-29T12:44:52;19.90;52.10
2647;DHT22;1333;50.958;6.770;2022-09-29T12:47:22;19.90;51.80
2647;DHT22;1333;50.958;6.770;2022-09-29T12:50:04;19.90;51.90
2647;DHT22;1333;50.958;6.770;2022-09-29T12:52:48;20.00;52.20
2647;DHT22;1333;50.958;6.770;2022-09-29T12:55:25;21.80;52.60
2647;DHT22;1333;50.958;6.770;2022-09-29T12:57:56;24.30;51.70
2647;DHT22;1333;50.958;6.770;2022-09-29T13:00:22;26.60;49.20
2647;DHT22;1333;50.958;6.770;2022-09-29T13:27:36;27.90;41.40
2647;DHT22;1333;50.958;6.770;2022-09-29T13:30:12;29.40;40.90
2647;DHT22;1333;50.958;6.770;2022-09-29T13:32:44;30.50;39.10
2647;DHT22;1333;50.958;6.770;2022-09-29T13:35:17;31.20;37.40
2647;DHT22;1333;50.958;6.770;2022-09-29T13:38:03;31.10;36.00
2647;DHT22;1333;50.958;6.770;2022-09-29T13:40:30;30.20;35.70
2647;DHT22;1333;50.958;6.770;2022-09-29T13:42:58;29.00;35.50
2647;DHT22;1333;50.958;6.770;2022-09-29T13:47:57;27.30;36.80
2647;DHT22;1333;50.958;6.770;2022-09-29T13:55:54;24.90;40.60
2647;DHT22;1333;50.958;6.770;2022-09-29T13:58:28;24.40;41.10
2647;DHT22;1333;50.958;6.770;2022-09-29T14:00:56;23.90;41.80
2647;DHT22;1333;50.958;6.770;2022-09-29T14:06:13;23.10;42.60
2647;DHT22;1333;50.958;6.770;2022-09-29T14:11:36;22.50;44.00
2647;DHT22;1333;50.958;6.770;2022-09-29T14:14:23;22.50;44.40
2647;DHT22;1333;50.958;6.770;2022-09-29T14:16:54;23.40;45.10
2647;DHT22;1333;50.958;6.770;2022-09-29T14:19:33;24.90;45.60
2647;DHT22;1333;50.958;6.770;2022-09-29T14:22:07;26.20;44.20
2647;DHT22;1333;50.958;6.770;2022-09-29T14:24:46;27.40;42.40
2647;DHT22;1333;50.958;6.770;2022-09-29T14:30:09;29.40;39.90
2647;DHT22;1333;50.958;6.770;2022-09-29T14:32:41;30.00;38.20
2647;DHT22;1333;50.958;6.770;2022-09-29T14:38:26;31.00;35.90
2647;DHT22;1333;50.958;6.770;2022-09-29T14:52:42;31.50;34.40
2647;DHT22;1333;50.958;6.770;2022-09-29T15:01:12;31.00;34.30
2647;DHT22;1333;50.958;6.770;2022-09-29T15:03:49;29.60;34.60
2647;DHT22;1333;50.958;6.770;2022-09-29T15:06:21;28.20;35.40
2647;DHT22;1333;50.958;6.770;2022-09-29T15:08:58;27.00;36.30
2647;DHT22;1333;50.958;6.770;2022-09-29T15:11:33;25.90;37.50
2647;DHT22;1333;50.958;6.770;2022-09-29T15:14:01;24.70;38.80
2647;DHT22;1333;50.958;6.770;2022-09-29T15:16:48;23.90;40.00
2647;DHT22;1333;50.958;6.770;2022-09-29T15:22:31;22.30;42.10
2647;DHT22;1333;50.958;6.770;2022-09-29T15:25:19;21.70;43.20
2647;DHT22;1333;50.958;6.770;2022-09-29T15:27:49;21.00;44.00
2647;DHT22;1333;50.958;6.770;2022-09-29T15:30:19;20.50;45.10
2647;DHT22;1333;50.958;6.770;2022-09-29T15:32:46;20.00;45.80
2647;DHT22;1333;50.958;6.770;2022-09-29T15:35:18;19.70;46.80
2647;DHT22;1333;50.958;6.770;2022-09-29T15:40:14;18.80;48.40
2647;DHT22;1333;50.958;6.770;2022-09-29T15:42:40;18.60;49.70
2647;DHT22;1333;50.958;6.770;2022-09-29T15:45:13;18.30;51.10
2647;DHT22;1333;50.958;6.770;2022-09-29T15:47:40;18.30;52.80
2647;DHT22;1333;50.958;6.770;2022-09-29T15:50:23;18.50;54.50
2647;DHT22;1333;50.958;6.770;2022-09-29T15:52:50;19.00;55.90
2647;DHT22;1333;50.958;6.770;2022-09-29T15:55:18;19.40;56.50
2647;DHT22;1333;50.958;6.770;2022-09-29T15:57:51;19.90;56.70
2647;DHT22;1333;50.958;6.770;2022-09-29T16:03:07;20.60;54.50
2647;DHT22;1333;50.958;6.770;2022-09-29T16:05:36;20.70;54.30
2647;DHT22;1333;50.958;6.770;2022-09-29T16:08:18;20.40;54.10
2647;DHT22;1333;50.958;6.770;2022-09-29T16:10:49;20.00;54.10
2647;DHT22;1333;50.958;6.770;2022-09-29T16:13:24;19.50;55.00
2647;DHT22;1333;50.958;6.770;2022-09-29T16:16:03;19.10;55.90
2647;DHT22;1333;50.958;6.770;2022-09-29T16:18:48;18.60;57.90
2647;DHT22;1333;50.958;6.770;2022-09-29T16:21:18;18.10;60.40
2647;DHT22;1333;50.958;6.770;2022-09-29T16:24:13;17.80;67.00
2647;DHT22;1333;50.958;6.770;2022-09-29T16:26:45;17.40;73.70
2647;DHT22;1333;50.958;6.770;2022-09-29T16:31:41;16.70;91.90
2647;DHT22;1333;50.958;6.770;2022-09-29T16:37:01;16.20;99.90
2647;DHT22;1333;50.958;6.770;2022-09-29T16:39:38;16.00;99.90
2647;DHT22;1333;50.958;6.770;2022-09-29T16:42:04;15.80;99.90
2647;DHT22;1333;50.958;6.770;2022-09-29T16:44:41;15.60;99.90
2647;DHT22;1333;50.958;6.770;2022-09-29T16:47:17;15.40;99.90
2647;DHT22;1333;50.958;6.770;2022-09-29T16:49:55;15.20;99.90
2647;DHT22;1333;50.958;6.770;2022-09-29T16:52:27;15.00;99.90
2647;DHT22;1333;50.958;6.770;2022-09-29T16:58:04;14.60;99.90
2647;DHT22;1333;50.958;6.770;2022-09-29T17:00:32;14.40;99.90
2647;DHT22;1333;50.958;6.770;2022-09-29T17:02:58;14.20;99.90
2647;DHT22;1333;50.958;6.770;2022-09-29T17:05:24;14.00;99.90
2647;DHT22;1333;50.958;6.770;2022-09-29T17:07:58;13.90;99.90
2647;DHT22;1333;50.958;6.770;2022-09-29T17:10:24;13.80;99.90
2647;DHT22;1333;50.958;6.770;2022-09-29T17:12:50;13.60;99.90
2647;DHT22;1333;50.958;6.770;2022-09-29T17:15:16;13.40;99.90
2647;DHT22;1333;50.958;6.770;2022-09-29T17:17:46;13.40;99.90
2647;DHT22;1333;50.958;6.770;2022-09-29T17:20:22;13.20;99.90
2647;DHT22;1333;50.958;6.770;2022-09-29T17:22:54;13.10;99.90
2647;DHT22;1333;50.958;6.770;2022-09-29T17:25:20;13.00;99.90
2647;DHT22;1333;50.958;6.770;2022-09-29T17:27:45;12.80;99.90
2647;DHT22;1333;50.958;6.770;2022-09-29T17:30:30;12.70;99.90
2647;DHT22;1333;50.958;6.770;2022-09-29T17:32:56;12.50;99.90
2647;DHT22;1333;50.958;6.770;2022-09-29T17:35:35;12.40;99.90
2647;DHT22;1333;50.958;6.770;2022-09-29T17:38:01;12.30;99.90
2647;DHT22;1333;50.958;6.770;2022-09-29T17:40:49;12.30;99.90
2647;DHT22;1333;50.958;6.770;2022-09-29T17:43:16;12.20;99.90
2647;DHT22;1333;50.958;6.770;2022-09-29T17:45:43;12.10;99.90
2647;DHT22;1333;50.958;6.770;2022-09-29T17:48:09;11.90;99.90
2647;DHT22;1333;50.958;6.770;2022-09-29T17:50:48;11.80;99.90
2647;DHT22;1333;50.958;6.770;2022-09-29T17:53:15;11.70;99.90
2647;DHT22;1333;50.958;6.770;2022-09-29T17:55:49;11.60;99.90
2647;DHT22;1333;50.958;6.770;2022-09-29T17:58:17;11.60;99.90
2647;DHT22;1333;50.958;6.770;2022-09-29T18:00:48;11.50;99.90
2647;DHT22;1333;50.958;6.770;2022-09-29T18:03:16;11.50;99.90
2647;DHT22;1333;50.958;6.770;2022-09-29T18:05:44;11.40;99.90
2647;DHT22;1333;50.958;6.770;2022-09-29T18:08:16;11.40;99.90
2647;DHT22;1333;50.958;6.770;2022-09-29T18:10:46;11.30;99.90
2647;DHT22;1333;50.958;6.770;2022-09-29T18:13:13;11.20;99.90
2647;DHT22;1333;50.958;6.770;2022-09-29T18:15:38;11.20;99.90
2647;DHT22;1333;50.958;6.770;2022-09-29T18:18:06;11.10;99.90
2647;DHT22;1333;50.958;6.770;2022-09-29T18:20:34;11.00;99.90
2647;DHT22;1333;50.958;6.770;2022-09-29T18:23:01;11.00;99.90
2647;DHT22;1333;50.958;6.770;2022-09-29T18:25:29;10.90;99.90
2647;DHT22;1333;50.958;6.770;2022-09-29T18:27:57;10.90;99.90
2647;DHT22;1333;50.958;6.770;2022-09-29T18:30:26;10.90;99.90
2647;DHT22;1333;50.958;6.770;2022-09-29T18:32:53;10.90;99.90
2647;DHT22;1333;50.958;6.770;2022-09-29T18:35:26;10.80;99.90
2647;DHT22;1333;50.958;6.770;2022-09-29T18:37:51;10.70;99.90
2647;DHT22;1333;50.958;6.770;2022-09-29T18:40:18;10.60;99.90
2647;DHT22;1333;50.958;6.770;2022-09-29T18:42:47;10.50;99.90
2647;DHT22;1333;50.958;6.770;2022-09-29T18:45:15;10.40;99.90
2647;DHT22;1333;50.958;6.770;2022-09-29T18:47:42;10.40;99.90
2647;DHT22;1333;50.958;6.770;2022-09-29T18:50:19;10.30;99.90
2647;DHT22;1333;50.958;6.770;2022-09-29T18:52:49;10.30;99.90
2647;DHT22;1333;50.958;6.770;2022-09-29T18:55:15;10.30;99.90
2647;DHT22;1333;50.958;6.770;2022-09-29T18:57:42;10.30;99.90
2647;DHT22;1333;50.958;6.770;2022-09-29T19:00:13;10.40;99.90
2647;DHT22;1333;50.958;6.770;2022-09-29T19:02:40;10.30;99.90
2647;DHT22;1333;50.958;6.770;2022-09-29T19:05:08;10.30;99.90
2647;DHT22;1333;50.958;6.770;2022-09-29T19:07:33;10.40;99.90
2647;DHT22;1333;50.958;6.770;2022-09-29T19:09:59;10.30;99.90
2647;DHT22;1333;50.958;6.770;2022-09-29T19:12:25;10.30;99.90
2647;DHT22;1333;50.958;6.770;2022-09-29T19:14:56;10.40;99.90
2647;DHT22;1333;50.958;6.770;2022-09-29T19:17:26;10.30;99.90
2647;DHT22;1333;50.958;6.770;2022-09-29T19:19:52;10.40;99.90
2647;DHT22;1333;50.958;6.770;2022-09-29T19:22:17;10.40;99.90
2647;DHT22;1333;50.958;6.770;2022-09-29T19:24:44;10.40;99.90
2647;DHT22;1333;50.958;6.770;2022-09-29T19:27:10;10.40;99.90
2647;DHT22;1333;50.958;6.770;2022-09-29T19:29:36;10.40;99.90
2647;DHT22;1333;50.958;6.770;2022-09-29T19:32:02;10.40;99.90
2647;DHT22;1333;50.958;6.770;2022-09-29T19:34:30;10.40;99.90
2647;DHT22;1333;50.958;6.770;2022-09-29T19:36:57;10.40;99.90
2647;DHT22;1333;50.958;6.770;2022-09-29T19:39:22;10.40;99.90
2647;DHT22;1333;50.958;6.770;2022-09-29T19:41:49;10.40;99.90
2647;DHT22;1333;50.958;6.770;2022-09-29T19:44:14;10.40;99.90
2647;DHT22;1333;50.958;6.770;2022-09-29T19:46:40;10.40;99.90